Terminal Aerodrome Forecast
Issued by NWS

Home | Current Version | Previous Version | Text Only | Print | Product List | Glossary On
Versions: 1 2 3 4 5 6 7 8 9 10 11 12 13 14 15 16 17 18
000
FTUS45 KTFX 212320
TAFGTF
TAF
KGTF 212320Z 2200/2224 VRB06KT P6SM VCTS BKN050CB OVC100
     FM220600 27008KT P6SM VCSH BKN050 OVC100
     FM220900 VRB05KT P6SM BKN050 OVC110 PROB30 2212/2218 -SHRA=

USA.gov is the U.S. government's official web portal to all federal, state and local government web resources and services.